createdAt,value
2023-05-19T22:06:03.645Z,78.68
2023-05-19T22:08:30.889Z,69.22
2023-05-19T22:10:58.009Z,60.22
2023-05-19T22:26:31.339Z,18.20
2023-05-19T22:28:58.488Z,20.02
2023-05-19T22:31:25.780Z,27.63
2023-05-19T22:33:52.924Z,29.60
2023-05-19T22:36:20.024Z,25.27
2023-05-19T22:38:48.049Z,20.05
2023-05-19T22:41:15.199Z,22.30
2023-05-19T22:43:42.424Z,20.55
2023-05-19T22:46:09.630Z,37.25
2023-05-19T22:48:36.739Z,35.00
2023-05-19T22:51:04.286Z,24.67
2023-05-19T22:53:31.357Z,24.83
2023-05-19T22:55:58.533Z,28.65
2023-05-19T22:58:25.951Z,32.67
2023-05-19T23:00:53.053Z,23.25
2023-05-19T23:03:20.267Z,23.52
2023-05-19T23:05:47.449Z,30.58
2023-05-19T23:08:14.562Z,18.17
2023-05-19T23:10:41.707Z,21.35
2023-05-19T23:13:09.882Z,24.23
2023-05-19T23:15:37.022Z,24.92
2023-05-19T23:18:07.557Z,29.55
2023-05-19T23:20:35.275Z,28.10
2023-05-19T23:23:02.401Z,21.98
2023-05-19T23:25:29.535Z,24.95
2023-05-19T23:27:56.685Z,26.40
2023-05-19T23:30:23.835Z,22.13
2023-05-19T23:32:51.053Z,30.38
2023-05-19T23:35:18.320Z,20.75
2023-05-19T23:37:45.596Z,28.15
2023-05-19T23:40:13.017Z,21.35
2023-05-19T23:42:40.160Z,23.73
2023-05-19T23:45:07.901Z,32.58
2023-05-19T23:47:35.107Z,28.92
2023-05-19T23:50:02.371Z,25.65
2023-05-19T23:52:29.486Z,27.60
2023-05-19T23:55:21.089Z,26.25
2023-05-19T23:57:48.219Z,29.55
